This is the latest recevied weather packets stored in our database for station/object F1ZRP-13. If no packets are shown the sender has not sent any weather packets the latest 10 day(s).
| Time | Temp. | Humidity | Pressure | Rain* | Wind** | Luminosity | Snow |
|---|---|---|---|---|---|---|---|
| 1777313446 | 17.22° C | 53% | 1019.3 hPa | - | - | - | - |
| 1777312555 | 18.33° C | 49% | 1019.3 hPa | - | - | - | - |
| 1777311439 | 19.44° C | 45% | 1019.4 hPa | - | - | - | - |
| 1777310244 | 20° C | 41% | 1019.5 hPa | - | - | - | - |
| 1777309324 | 20.56° C | 41% | 1019.6 hPa | - | - | - | - |
| 1777308460 | 21.67° C | 37% | 1019.6 hPa | - | - | - | - |
| 1777307387 | 26.67° C | 31% | 1019.8 hPa | - | - | - | - |
| 1777306477 | 28.33° C | 28% | 1019.7 hPa | - | - | - | - |
| 1777305600 | 26.67° C | 30% | 1019.9 hPa | - | - | - | - |
| 1777304850 | 27.78° C | 29% | 1020 hPa | - | - | - | - |
| 1777303753 | 26.67° C | 30% | 1020.1 hPa | - | - | - | - |
| 1777302848 | 27.22° C | 28% | 1020.2 hPa | - | - | - | - |
| 1777302057 | 26.67° C | 31% | 1020.3 hPa | - | - | - | - |
| 1777301376 | 24.44° C | 33% | 1020.5 hPa | - | - | - | - |
| 1777300557 | 23.89° C | 33% | 1020.7 hPa | - | - | - | - |
| 1777299687 | 22.78° C | 34% | 1020.8 hPa | - | - | - | - |
| 1777298827 | 21.67° C | 36% | 1020.9 hPa | - | - | - | - |
| 1777298079 | 21.67° C | 36% | 1021 hPa | - | - | - | - |
| 1777297249 | 20.56° C | 37% | 1021.1 hPa | - | - | - | - |
| 1777296449 | 20° C | 36% | 1021.4 hPa | - | - | - | - |
| 1777295627 | 20° C | 39% | 1021.4 hPa | - | - | - | - |
| 1777290874 | 19.44° C | 38% | 1022 hPa | - | - | - | - |
| 1777289684 | 19.44° C | 40% | 1022.2 hPa | - | - | - | - |
| 1777288631 | 18.33° C | 40% | 1022.3 hPa | - | - | - | - |
| 1777287624 | 18.33° C | 42% | 1022.4 hPa | - | - | - | - |
* Rain since midnight (hover to see other rain measurements)
** Current wind speed in m/s (hover to see current wind gust speed)